logo
Search for airport 
image banner adimage banner adimage banner ad
image banner ad

KVSF - Hartness State (Springfield)

Located in Springfield, United States

ICAO - VSF, IATA - VSF

Data provided by Airmate  

General information

Coordinates: N43°20'37" W72°31'2"
Elevation is 577 feet MSL.
Magnetic variation is -15° East
View others Airports in Vermont

Operational data

Special qualification required
Current time UTC:
Current local time:
Weather
METAR: KVSF 131454Z AUTO 25013G22KT 10SM FEW041 BKN070 BKN120 09/01 A2944 RMK AO2 RAB07E19 SLP973 P0000 60000 T00940006 51010
View NOTAMs / SUP AIP / TFR affecting this airport [VIEW]
Communications frequencies: [VIEW]

Runways:

RWY identifierQFULength (ft)Width (ft)SurfaceLDA (ft)
0535°5501100ASPH
23215°5501100ASPH
1199°300075ASPH
29279°300075ASPH

Airport contact information

Address: Springfield United States

Other aviation service providers

Flight schools

New England Soaring Association

New England Soaring Association
info@flynesa.com+1(802)353-8966

Satellite view of KVSF